KCNU/CNU METAR and TAF weather

Enter ICAO airport designator
Station Type Date Time Source
KCNU METAR 2021/08/05 03:52 UTC NOAA

KCNU 050352Z AUTO 11004KT 10SM CLR 23/19 A3009 RMK AO2 SLP180 T02330189


Station Type Date Time Source
KCNU Decoded METAR 2021/08/05 03:52 UTC NOAA

CHANUTE JOHNSON AIRPORT, KS, United States (KCNU) 37-40N 95-29W 297M
Aug 04, 2021 - 11:52 PM EDT / 2021.08.05 0352 UTC
Wind: from the ESE (110 degrees) at 5 MPH (4 KT):0
Visibility: 10 mile(s):0
Sky conditions: clear
Temperature: 73.9 F (23.3 C)
Dew Point: 66.0 F (18.9 C)
Relative Humidity: 76%
Pressure (altimeter): 30.09 in. Hg (1018 hPa)
ob: KCNU 050352Z AUTO 11004KT 10SM CLR 23/19 A3009 RMK AO2 SLP180 T02330189
cycle: 4

Station Type Date Time Source
KCNU TAF 2021/08/04 18:22 UTC NOAA

TAF KCNU 041720Z 0418/0518 12005KT 6SM FU FEW035 SCT200
FM042300 15005KT 6SM FU FEW035 FEW250
FM050400 14004KT 6SM FU SCT250
FM051000 17004KT P6SM BKN150

Example: see airport list